createdAt,value
2022-12-18T00:01:39.645Z,27.07
2022-12-18T00:04:08.087Z,24.50
2022-12-18T00:06:36.217Z,23.13
2022-12-18T00:09:04.734Z,28.38
2022-12-18T00:11:32.856Z,24.60
2022-12-18T00:14:01.128Z,27.17
2022-12-18T00:16:29.346Z,28.98
2022-12-18T00:18:57.842Z,27.17
2022-12-18T00:21:24.363Z,30.75
2022-12-18T00:23:51.676Z,26.05
2022-12-18T00:26:20.642Z,27.77
2022-12-18T00:28:49.014Z,28.80
2022-12-18T00:31:18.301Z,25.25
2022-12-18T00:33:45.397Z,28.45
2022-12-18T00:36:14.434Z,32.03
2022-12-18T00:38:41.826Z,29.73
2022-12-18T00:41:11.462Z,28.98
2022-12-18T00:43:40.365Z,25.48
2022-12-18T00:46:08.800Z,29.52
2022-12-18T00:48:36.260Z,30.30
2022-12-18T00:51:02.841Z,26.83
2022-12-18T00:53:29.388Z,23.25
2022-12-18T00:55:55.946Z,17.85
2022-12-18T00:58:22.499Z,20.75
2022-12-18T01:00:49.169Z,21.00
2022-12-18T01:03:17.355Z,19.47
2022-12-18T01:05:44.227Z,22.23
2022-12-18T01:08:10.765Z,26.23
2022-12-18T01:10:37.280Z,24.55
2022-12-18T01:13:04.027Z,28.10
2022-12-18T01:15:30.600Z,24.00
2022-12-18T01:17:57.236Z,24.15
2022-12-18T01:20:25.411Z,19.75
2022-12-18T01:22:52.099Z,20.65
2022-12-18T01:25:18.842Z,18.02
2022-12-18T01:27:45.389Z,19.00
2022-12-18T01:30:12.590Z,17.70
2022-12-18T01:32:39.381Z,18.92
2022-12-18T01:35:07.198Z,24.08
2022-12-18T01:37:35.153Z,20.50
2022-12-18T01:40:01.882Z,19.93
2022-12-18T01:42:28.425Z,19.25
2022-12-18T01:45:01.415Z,19.85
2022-12-18T01:47:33.160Z,19.30
2022-12-18T01:50:03.434Z,24.73
2022-12-18T01:52:33.666Z,19.97
2022-12-18T01:55:04.066Z,19.98
2022-12-18T01:57:30.695Z,23.13
2022-12-18T02:00:02.043Z,21.52
2022-12-18T02:02:30.312Z,20.00
2022-12-18T02:04:57.160Z,16.50
2022-12-18T02:07:33.703Z,23.25
2022-12-18T02:10:07.655Z,19.02
2022-12-18T02:12:43.870Z,20.60
2022-12-18T02:15:15.627Z,22.25
2022-12-18T02:17:48.535Z,18.47
2022-12-18T02:20:21.360Z,19.52
2022-12-18T02:23:01.370Z,17.27
2022-12-18T02:25:44.751Z,16.42
2022-12-18T02:28:17.043Z,20.08
2022-12-18T02:30:48.114Z,18.53
2022-12-18T02:33:16.035Z,22.23
2022-12-18T02:35:44.598Z,18.60
2022-12-18T02:38:12.897Z,20.10
2022-12-18T02:40:41.695Z,19.80
2022-12-18T02:43:09.879Z,21.37
2022-12-18T02:45:47.094Z,19.70
2022-12-18T02:48:14.209Z,16.67
2022-12-18T02:50:50.421Z,13.88
2022-12-18T02:53:27.436Z,14.15
2022-12-18T02:56:04.083Z,15.97
2022-12-18T02:58:41.199Z,15.13
2022-12-18T03:01:15.143Z,15.07
2022-12-18T03:03:46.924Z,16.80
2022-12-18T03:06:19.329Z,17.60
2022-12-18T03:08:50.811Z,17.13
2022-12-18T03:11:17.599Z,17.05
2022-12-18T03:13:48.389Z,18.38
2022-12-18T03:16:23.902Z,13.00
2022-12-18T03:18:53.235Z,16.80
2022-12-18T03:21:26.898Z,12.67
2022-12-18T03:23:54.749Z,13.55
2022-12-18T03:26:28.769Z,14.63
2022-12-18T03:29:00.853Z,12.82
2022-12-18T03:31:32.088Z,15.32
2022-12-18T03:34:01.844Z,15.00
2022-12-18T03:36:31.557Z,19.00
2022-12-18T03:38:58.335Z,14.70
2022-12-18T03:41:32.134Z,16.83
2022-12-18T03:44:07.516Z,16.25
2022-12-18T03:46:44.614Z,14.97
2022-12-18T03:49:15.467Z,12.40
2022-12-18T03:51:49.759Z,13.32
2022-12-18T03:54:18.353Z,15.50
2022-12-18T03:56:49.813Z,17.75
2022-12-18T03:59:18.176Z,12.20
2022-12-18T04:01:48.646Z,17.02
2022-12-18T04:04:17.045Z,14.90
2022-12-18T04:06:46.509Z,19.75
2022-12-18T04:09:13.697Z,15.35
2022-12-18T04:11:41.225Z,14.17
2022-12-18T04:14:08.088Z,13.00
2022-12-18T04:16:35.722Z,14.73
2022-12-18T04:19:03.881Z,14.02
2022-12-18T04:21:30.453Z,15.57
2022-12-18T04:23:57.024Z,14.27
2022-12-18T04:26:23.990Z,13.57
2022-12-18T04:28:50.674Z,15.00
2022-12-18T04:31:17.200Z,15.85
2022-12-18T04:33:43.776Z,12.90
2022-12-18T04:36:11.658Z,13.67
2022-12-18T04:38:38.231Z,14.68
2022-12-18T04:41:05.083Z,14.52
2022-12-18T04:43:31.779Z,16.33
2022-12-18T04:46:02.931Z,13.23
2022-12-18T04:48:29.494Z,17.17
2022-12-18T04:50:56.135Z,19.38
2022-12-18T04:53:24.388Z,14.00
2022-12-18T04:55:50.971Z,14.70
2022-12-18T04:58:17.585Z,11.02
2022-12-18T05:00:44.138Z,13.53
2022-12-18T05:03:10.723Z,12.85
2022-12-18T05:05:37.247Z,11.68
2022-12-18T05:08:04.230Z,15.15
2022-12-18T05:10:37.784Z,13.93
2022-12-18T05:13:04.905Z,14.53
2022-12-18T05:15:33.029Z,13.43
2022-12-18T05:18:00.497Z,11.40
2022-12-18T05:20:28.861Z,15.40
2022-12-18T05:22:55.988Z,11.57
2022-12-18T05:25:23.381Z,9.33
2022-12-18T05:27:51.331Z,15.57
2022-12-18T05:30:18.391Z,13.05
2022-12-18T05:32:44.915Z,12.75
2022-12-18T05:35:12.078Z,15.15
2022-12-18T05:37:42.907Z,11.40
2022-12-18T05:40:11.017Z,11.15
2022-12-18T05:42:37.897Z,13.13
2022-12-18T05:45:07.140Z,12.15
2022-12-18T05:47:33.789Z,10.80
2022-12-18T05:50:00.517Z,13.57
2022-12-18T05:52:27.247Z,12.63
2022-12-18T05:54:53.948Z,12.93
2022-12-18T05:57:20.514Z,10.65
2022-12-18T05:59:47.164Z,15.55
2022-12-18T06:02:15.174Z,13.40
2022-12-18T06:04:41.801Z,11.85
2022-12-18T06:07:08.318Z,17.10
2022-12-18T06:09:34.812Z,13.38
2022-12-18T06:12:01.362Z,10.43
2022-12-18T06:14:28.246Z,9.93
2022-12-18T06:16:54.785Z,14.65
2022-12-18T06:19:22.694Z,14.10
2022-12-18T06:21:49.169Z,13.18
2022-12-18T06:24:16.126Z,14.90
2022-12-18T06:26:42.749Z,31.40
2022-12-18T06:29:09.451Z,20.63
2022-12-18T06:31:36.269Z,20.15
2022-12-18T06:34:03.950Z,18.35
2022-12-18T06:36:31.942Z,16.05
2022-12-18T06:38:59.216Z,18.07
2022-12-18T06:41:25.955Z,20.35
2022-12-18T06:43:56.750Z,22.27
2022-12-18T06:46:26.479Z,20.88
2022-12-18T06:48:52.990Z,14.30
2022-12-18T06:51:20.984Z,24.87
2022-12-18T06:53:49.139Z,16.80
2022-12-18T06:56:15.736Z,23.05
2022-12-18T06:58:42.322Z,21.83
2022-12-18T07:01:10.664Z,18.40
2022-12-18T07:03:37.978Z,17.73
2022-12-18T07:06:05.047Z,15.40
2022-12-18T07:08:31.724Z,14.10
2022-12-18T07:10:59.613Z,14.43
2022-12-18T07:13:26.183Z,15.63
2022-12-18T07:15:52.768Z,16.03
2022-12-18T07:18:19.309Z,19.25
2022-12-18T07:20:46.012Z,17.13
2022-12-18T07:23:14.349Z,19.00
2022-12-18T07:25:41.226Z,19.30
2022-12-18T07:28:12.890Z,13.93
2022-12-18T07:30:43.866Z,15.43
2022-12-18T07:33:10.456Z,17.88
2022-12-18T07:35:37.788Z,17.70
2022-12-18T07:38:04.790Z,16.17
2022-12-18T07:40:31.294Z,14.40
2022-12-18T07:42:58.229Z,14.35
2022-12-18T07:45:26.383Z,13.00
2022-12-18T07:47:53.195Z,12.57
2022-12-18T07:50:20.185Z,14.73
2022-12-18T07:52:47.159Z,12.13
2022-12-18T07:55:14.165Z,20.50
2022-12-18T07:57:50.749Z,18.20
2022-12-18T08:00:19.356Z,19.42
2022-12-18T08:02:48.301Z,23.80
2022-12-18T08:05:16.086Z,19.70
2022-12-18T08:07:42.833Z,17.02
2022-12-18T08:10:10.144Z,14.10
2022-12-18T08:12:36.708Z,20.33
2022-12-18T08:15:04.909Z,32.83
2022-12-18T08:17:33.113Z,28.90
2022-12-18T08:20:01.219Z,26.52
2022-12-18T08:22:27.868Z,24.30
2022-12-18T08:24:54.453Z,24.77
2022-12-18T08:27:31.213Z,18.73
2022-12-18T08:29:58.739Z,22.37
2022-12-18T08:32:25.796Z,21.02
2022-12-18T08:34:52.623Z,23.80
2022-12-18T08:37:20.564Z,18.67
2022-12-18T08:39:47.318Z,19.88
2022-12-18T08:42:13.893Z,20.97
2022-12-18T08:44:40.430Z,16.23
2022-12-18T08:47:07.722Z,19.63
2022-12-18T08:49:34.906Z,22.17
2022-12-18T08:52:01.711Z,20.38
2022-12-18T08:54:29.706Z,23.07
2022-12-18T08:56:56.248Z,21.55
2022-12-18T08:59:22.848Z,21.77
2022-12-18T09:01:51.317Z,25.02
2022-12-18T09:04:17.963Z,25.38
2022-12-18T09:06:44.618Z,17.37
2022-12-18T09:09:11.348Z,25.75
2022-12-18T09:11:39.373Z,22.20
2022-12-18T09:14:05.898Z,28.23
2022-12-18T09:16:33.739Z,23.27
2022-12-18T09:19:01.203Z,20.97
2022-12-18T09:21:30.057Z,22.75
2022-12-18T09:23:57.231Z,19.67
2022-12-18T09:26:24.994Z,20.08
2022-12-18T09:28:53.351Z,23.42
2022-12-18T09:31:22.235Z,21.67
2022-12-18T09:33:49.022Z,22.83
2022-12-18T09:36:17.999Z,24.70
2022-12-18T09:38:44.796Z,21.98
2022-12-18T09:41:28.222Z,20.83
2022-12-18T09:44:01.391Z,19.10
2022-12-18T09:46:31.480Z,21.33
2022-12-18T09:49:01.900Z,18.67
2022-12-18T09:51:31.602Z,19.33
2022-12-18T09:54:03.831Z,24.98
2022-12-18T09:56:35.776Z,23.37
2022-12-18T09:59:05.568Z,22.65
2022-12-18T10:01:41.443Z,21.73
2022-12-18T10:04:10.253Z,23.92
2022-12-18T10:06:43.859Z,18.25
2022-12-18T10:09:21.721Z,21.60
2022-12-18T10:11:58.394Z,22.45
2022-12-18T10:14:35.061Z,19.20
2022-12-18T10:17:14.520Z,21.08
2022-12-18T10:19:46.185Z,18.25
2022-12-18T10:22:23.242Z,20.47
2022-12-18T10:25:00.665Z,21.73
2022-12-18T10:27:28.352Z,17.45
2022-12-18T10:29:56.745Z,18.42
2022-12-18T10:32:25.500Z,22.10
2022-12-18T10:34:59.792Z,22.07
2022-12-18T10:37:28.986Z,24.88
2022-12-18T10:40:13.256Z,20.15
2022-12-18T10:42:43.449Z,22.58
2022-12-18T10:45:15.144Z,27.58
2022-12-18T10:47:45.689Z,21.63
2022-12-18T10:50:26.270Z,28.58
2022-12-18T10:53:00.439Z,29.80
2022-12-18T10:55:32.923Z,24.15
2022-12-18T10:58:18.304Z,26.10
2022-12-18T11:01:04.206Z,25.13
2022-12-18T11:03:32.917Z,23.92
2022-12-18T11:06:05.111Z,28.38
2022-12-18T11:08:31.813Z,25.70
2022-12-18T11:10:58.646Z,26.83
2022-12-18T11:13:27.602Z,26.97
2022-12-18T11:15:55.874Z,30.77
2022-12-18T11:18:27.371Z,24.42
2022-12-18T11:20:58.643Z,20.88
2022-12-18T11:23:26.511Z,22.45
2022-12-18T11:25:56.081Z,22.70
2022-12-18T11:28:36.389Z,23.85
2022-12-18T11:31:25.723Z,20.98
2022-12-18T11:34:27.443Z,24.02
2022-12-18T11:36:47.539Z,21.60
2022-12-18T11:39:19.976Z,24.53
2022-12-18T11:41:53.838Z,24.65
2022-12-18T11:44:26.102Z,21.95
2022-12-18T11:47:00.678Z,20.27
2022-12-18T11:49:33.471Z,20.60
2022-12-18T11:52:05.676Z,19.73
2022-12-18T11:54:32.228Z,22.58
2022-12-18T11:57:06.943Z,19.75
2022-12-18T11:59:40.189Z,26.52
2022-12-18T12:02:30.724Z,23.58
2022-12-18T12:05:16.468Z,23.60
2022-12-18T12:07:51.876Z,23.20
2022-12-18T12:10:30.556Z,24.67
2022-12-18T12:13:13.588Z,28.95
2022-12-18T12:15:52.939Z,22.77
2022-12-18T12:18:30.925Z,27.30
2022-12-18T12:21:08.341Z,29.83
2022-12-18T12:23:43.227Z,31.38
2022-12-18T12:26:16.546Z,30.60
2022-12-18T12:28:58.236Z,29.08
2022-12-18T12:31:37.665Z,30.93
2022-12-18T12:34:18.802Z,34.17
2022-12-18T12:36:57.017Z,29.70
2022-12-18T12:39:28.574Z,25.42
2022-12-18T12:41:55.998Z,28.23
2022-12-18T12:44:27.380Z,24.47
2022-12-18T12:47:01.772Z,26.10
2022-12-18T12:49:36.328Z,26.48
2022-12-18T12:52:13.368Z,23.73
2022-12-18T12:54:40.858Z,24.02
2022-12-18T12:57:13.682Z,29.00
2022-12-18T12:59:50.759Z,23.73
2022-12-18T13:02:23.508Z,29.23
2022-12-18T13:05:02.032Z,22.73
2022-12-18T13:07:33.477Z,23.65
2022-12-18T13:10:29.175Z,26.57
2022-12-18T13:12:58.625Z,25.42
2022-12-18T13:15:31.439Z,19.45
2022-12-18T13:18:19.483Z,23.70
2022-12-18T13:20:55.444Z,27.13
2022-12-18T13:23:34.978Z,24.47
2022-12-18T13:26:36.408Z,24.38
2022-12-18T13:29:03.610Z,20.85
2022-12-18T13:32:08.584Z,21.63
2022-12-18T13:34:35.564Z,22.52
2022-12-18T13:37:39.688Z,20.73
2022-12-18T13:40:51.373Z,14.82
2022-12-18T13:43:27.797Z,19.05
2022-12-18T13:46:03.736Z,17.77
2022-12-18T13:48:33.341Z,20.13
2022-12-18T13:51:02.764Z,24.07
2022-12-18T13:53:34.050Z,24.42
2022-12-18T13:56:00.747Z,21.30
2022-12-18T13:58:28.661Z,21.00
2022-12-18T14:00:55.355Z,21.70
2022-12-18T14:03:24.195Z,21.47
2022-12-18T14:05:57.519Z,22.83
2022-12-18T14:08:33.351Z,19.95
2022-12-18T14:11:00.120Z,21.45
2022-12-18T14:13:31.245Z,29.33
2022-12-18T14:16:00.945Z,25.10
2022-12-18T14:18:37.517Z,27.77
2022-12-18T14:21:05.439Z,27.52
2022-12-18T14:23:34.635Z,27.35
2022-12-18T14:26:05.980Z,43.80
2022-12-18T14:28:34.242Z,42.87
2022-12-18T14:31:01.055Z,32.58
2022-12-18T14:33:28.661Z,28.70
2022-12-18T14:35:58.756Z,28.05
2022-12-18T14:38:28.966Z,29.17
2022-12-18T14:40:58.241Z,27.43
2022-12-18T14:43:25.292Z,24.65
2022-12-18T14:45:54.008Z,25.90
2022-12-18T14:48:23.951Z,26.60
2022-12-18T14:51:00.989Z,30.77
2022-12-18T14:53:34.976Z,27.30
2022-12-18T14:56:02.767Z,28.42
2022-12-18T14:58:29.589Z,30.50
2022-12-18T15:00:57.779Z,31.33
2022-12-18T15:03:24.506Z,34.40
2022-12-18T15:05:52.256Z,37.30
2022-12-18T15:08:32.098Z,30.85
2022-12-18T15:10:59.578Z,30.58
2022-12-18T15:13:26.666Z,31.20
2022-12-18T15:15:54.961Z,34.97
2022-12-18T15:18:30.666Z,42.83
2022-12-18T15:20:59.272Z,44.20
2022-12-18T15:23:28.481Z,48.78
2022-12-18T15:25:59.776Z,45.85
2022-12-18T15:28:30.031Z,45.47
2022-12-18T15:31:01.738Z,44.43
2022-12-18T15:33:32.992Z,44.40
2022-12-18T15:36:00.890Z,44.60
2022-12-18T15:38:28.216Z,45.92
2022-12-18T15:40:55.437Z,47.45
2022-12-18T15:43:23.554Z,52.83
2022-12-18T15:45:50.168Z,61.75
2022-12-18T15:48:21.604Z,73.60
2022-12-18T15:50:50.815Z,66.18
2022-12-18T15:53:17.536Z,54.17
2022-12-18T15:55:44.138Z,54.47
2022-12-18T15:58:11.590Z,57.08
2022-12-18T16:00:40.947Z,61.40
2022-12-18T16:03:07.711Z,51.83
2022-12-18T16:05:34.496Z,53.85
2022-12-18T16:08:02.451Z,44.83
2022-12-18T16:10:29.727Z,49.15
2022-12-18T16:12:56.263Z,47.90
2022-12-18T16:15:24.992Z,44.63
2022-12-18T16:17:52.260Z,42.95
2022-12-18T16:20:20.905Z,41.03
2022-12-18T16:22:48.211Z,50.72
2022-12-18T16:25:20.438Z,46.38
2022-12-18T16:27:47.177Z,46.42
2022-12-18T16:30:16.741Z,40.17
2022-12-18T16:32:43.487Z,41.47
2022-12-18T16:35:11.935Z,40.97
2022-12-18T16:37:38.813Z,38.90
2022-12-18T16:40:07.199Z,43.88
2022-12-18T16:42:35.746Z,48.40
2022-12-18T16:45:02.301Z,39.67
2022-12-18T16:47:29.131Z,39.75
2022-12-18T16:49:55.864Z,33.95
2022-12-18T16:52:22.485Z,33.17
2022-12-18T16:54:49.054Z,36.22
2022-12-18T16:57:18.303Z,33.03
2022-12-18T16:59:46.865Z,27.48
2022-12-18T17:02:14.685Z,30.75
2022-12-18T17:04:42.194Z,29.83
2022-12-18T17:07:08.813Z,28.35
2022-12-18T17:09:35.719Z,28.97
2022-12-18T17:12:04.534Z,27.85
2022-12-18T17:14:32.962Z,29.17
2022-12-18T17:17:20.905Z,31.90
2022-12-18T17:19:47.812Z,32.75
2022-12-18T17:22:14.547Z,29.80
2022-12-18T17:24:41.069Z,32.95
2022-12-18T17:27:07.596Z,32.47
2022-12-18T17:29:34.256Z,36.83
2022-12-18T17:32:02.273Z,30.23
2022-12-18T17:34:29.013Z,38.50
2022-12-18T17:36:56.726Z,34.63
2022-12-18T17:39:23.538Z,30.67
2022-12-18T17:41:50.147Z,25.48
2022-12-18T17:44:17.748Z,29.45
2022-12-18T17:46:44.785Z,24.83
2022-12-18T17:49:13.464Z,22.63
2022-12-18T17:51:40.145Z,25.40
2022-12-18T17:54:06.691Z,20.90
2022-12-18T17:56:33.259Z,49.33
2022-12-18T17:58:59.975Z,45.20
2022-12-18T18:01:26.870Z,43.00
2022-12-18T18:03:54.395Z,42.92
2022-12-18T18:06:23.101Z,44.38
2022-12-18T18:08:49.905Z,40.33
2022-12-18T18:11:19.688Z,42.83
2022-12-18T18:13:47.113Z,45.88
2022-12-18T18:16:14.027Z,51.05
2022-12-18T18:18:40.689Z,44.85
2022-12-18T18:21:08.923Z,53.13
2022-12-18T18:23:37.318Z,47.93
2022-12-18T18:26:07.640Z,57.00
2022-12-18T18:28:34.263Z,56.13
2022-12-18T18:31:04.588Z,56.35
2022-12-18T18:33:31.377Z,49.15
2022-12-18T18:35:57.943Z,45.47
2022-12-18T18:38:25.806Z,46.58
2022-12-18T18:40:59.234Z,40.50
2022-12-18T18:43:25.936Z,46.83
2022-12-18T18:45:55.391Z,48.60
2022-12-18T18:48:22.175Z,42.60
2022-12-18T18:50:56.254Z,45.92
2022-12-18T18:53:22.777Z,53.53
2022-12-18T18:56:16.591Z,49.58
2022-12-18T18:58:37.993Z,57.58
2022-12-18T19:01:07.225Z,46.83
2022-12-18T19:03:34.845Z,47.97
2022-12-18T19:06:01.652Z,51.53
2022-12-18T19:08:30.291Z,46.20
2022-12-18T19:10:59.139Z,47.95
2022-12-18T19:13:27.688Z,53.77
2022-12-18T19:16:05.656Z,76.07
2022-12-18T19:18:33.527Z,54.60
2022-12-18T19:21:03.734Z,48.22
2022-12-18T19:23:31.506Z,38.70
2022-12-18T19:26:26.669Z,52.33
2022-12-18T19:28:47.828Z,40.55
2022-12-18T19:31:24.475Z,40.75
2022-12-18T19:33:56.391Z,47.00
2022-12-18T19:36:25.445Z,37.85
2022-12-18T19:38:54.544Z,43.27
2022-12-18T19:41:22.563Z,37.85
2022-12-18T19:43:50.973Z,41.30
2022-12-18T19:46:23.301Z,42.35
2022-12-18T19:48:56.454Z,45.33
2022-12-18T19:51:25.751Z,49.43
2022-12-18T19:53:58.500Z,40.67
2022-12-18T19:56:28.118Z,49.28
2022-12-18T19:58:55.680Z,50.70
2022-12-18T20:01:26.048Z,46.72
2022-12-18T20:03:54.645Z,48.97
2022-12-18T20:06:26.619Z,47.47
2022-12-18T20:09:00.224Z,51.60
2022-12-18T20:11:28.134Z,55.20
2022-12-18T20:13:56.774Z,46.97
2022-12-18T20:16:24.955Z,46.53
2022-12-18T20:18:52.298Z,43.03
2022-12-18T20:21:19.270Z,43.45
2022-12-18T20:23:46.648Z,38.97
2022-12-18T20:26:14.340Z,42.03
2022-12-18T20:28:41.843Z,41.50
2022-12-18T20:31:10.613Z,43.35
2022-12-18T20:33:43.099Z,46.05
2022-12-18T20:36:15.278Z,42.95
2022-12-18T20:38:43.639Z,43.63
2022-12-18T20:41:17.160Z,44.90
2022-12-18T20:43:45.035Z,48.88
2022-12-18T20:46:14.003Z,47.38
2022-12-18T20:48:42.658Z,52.78
2022-12-18T20:51:12.351Z,42.80
2022-12-18T20:53:42.107Z,48.77
2022-12-18T20:56:13.705Z,47.88
2022-12-18T20:58:45.160Z,45.25
2022-12-18T21:01:14.189Z,44.50
2022-12-18T21:03:44.155Z,52.10
2022-12-18T21:06:11.543Z,50.80
2022-12-18T21:08:38.943Z,44.45
2022-12-18T21:11:17.647Z,49.85
2022-12-18T21:13:47.568Z,44.60
2022-12-18T21:16:14.841Z,41.90
2022-12-18T21:18:44.516Z,46.13
2022-12-18T21:21:11.688Z,47.75
2022-12-18T21:23:39.070Z,42.13
2022-12-18T21:26:16.418Z,41.88
2022-12-18T21:28:44.039Z,57.17
2022-12-18T21:31:11.207Z,60.87
2022-12-18T21:33:38.780Z,61.85
2022-12-18T21:36:08.300Z,58.65
2022-12-18T21:38:35.674Z,73.00
2022-12-18T21:41:05.953Z,64.88
2022-12-18T21:43:33.395Z,60.30
2022-12-18T21:46:00.080Z,59.65
2022-12-18T21:48:26.736Z,54.60
2022-12-18T21:50:53.518Z,58.00
2022-12-18T21:53:21.907Z,60.47
2022-12-18T21:55:57.309Z,59.07
2022-12-18T21:58:23.907Z,60.63
2022-12-18T22:00:50.910Z,55.50
2022-12-18T22:03:19.418Z,55.15
2022-12-18T22:05:46.090Z,50.30
2022-12-18T22:08:15.975Z,49.67
2022-12-18T22:10:44.232Z,42.08
2022-12-18T22:13:11.061Z,50.47
2022-12-18T22:15:37.735Z,55.30
2022-12-18T22:18:04.438Z,53.55
2022-12-18T22:20:31.019Z,48.57
2022-12-18T22:22:57.905Z,47.53
2022-12-18T22:25:24.563Z,46.63
2022-12-18T22:27:52.565Z,48.70
2022-12-18T22:30:19.226Z,39.42
2022-12-18T22:32:45.970Z,41.40
2022-12-18T22:35:15.801Z,41.70
2022-12-18T22:37:42.749Z,38.50
2022-12-18T22:40:23.555Z,42.72
2022-12-18T22:42:52.656Z,41.92
2022-12-18T22:45:22.447Z,38.47
2022-12-18T22:47:49.101Z,40.55
2022-12-18T22:50:15.750Z,41.67
2022-12-18T22:52:42.460Z,43.70
2022-12-18T22:55:09.428Z,42.15
2022-12-18T22:57:36.050Z,38.67
2022-12-18T23:00:06.320Z,42.42
2022-12-18T23:02:33.003Z,42.20
2022-12-18T23:04:59.719Z,43.78
2022-12-18T23:07:26.310Z,46.88
2022-12-18T23:09:58.927Z,37.57
2022-12-18T23:12:27.740Z,41.40
2022-12-18T23:14:54.931Z,38.10
2022-12-18T23:17:22.843Z,44.03
2022-12-18T23:19:49.620Z,37.50
2022-12-18T23:22:16.392Z,41.67
2022-12-18T23:24:43.071Z,40.10
2022-12-18T23:27:11.508Z,45.55
2022-12-18T23:29:38.692Z,37.03
2022-12-18T23:32:05.195Z,45.35
2022-12-18T23:34:33.078Z,42.47
2022-12-18T23:36:59.588Z,41.40
2022-12-18T23:39:29.548Z,41.33
2022-12-18T23:41:56.803Z,42.83
2022-12-18T23:44:23.542Z,40.35
2022-12-18T23:46:50.364Z,43.27
2022-12-18T23:49:16.993Z,40.25
2022-12-18T23:51:44.935Z,48.88
2022-12-18T23:54:11.489Z,50.38
2022-12-18T23:56:38.063Z,53.95
2022-12-18T23:59:04.830Z,44.97
